Richmond (North Yorkshire), United Kingdom
Current Conditions -  °F | °C
As of 2:50 AM on Saturday 22 Nov 2014 (Local Time) from EGXE Reporting Station
Haze Haze  
Wind Chill:   Ceiling: 500
Heat Index:   Visibility: 2.1mi
Dew Point:   Wind: 15mph
Humidity: 93%   Direction: 150°SSE
Pressure: 29.8"   Gusts: NA
Location:  54.41°N, 1.74°W
Report Text: EGXE 220250Z AUTO 15013KT 3400 BR OVC005/// 09/08 Q1009 RERA
Loading
Personal Weather Stations






























Interactive Weather Map New forecast layout! Learn more

10-Day Weather Forecast

Advertisements
Track Severe Weather on mobile